Time;durP1;ratioP1;P1;durP2;ratioP2;P2;SDS_P1;SDS_P2;PMS_P1;PMS_P2;Temp;Humidity;BMP_temperature;BMP_pressure;BME280_temperature;BME280_humidity;BME280_pressure;Samples;Min_cycle;Max_cycle;Signal;HPM_P1;HPM_P2
2022/02/07 00:05:43;;;;;;;2.10;0.90;;;;;;;3.62;87.95;96561.92;433701;1267;98012;-42
2022/02/07 00:15:51;;;;;;;1.70;1.10;;;;;;;3.54;88.01;96571.26;433340;1267;109232;-40
2022/02/07 00:25:58;;;;;;;3.80;1.40;;;;;;;3.47;88.08;96574.58;433529;1267;97500;-41
2022/02/07 00:36:06;;;;;;;4.00;1.90;;;;;;;3.45;88.16;96575.84;433538;1267;111551;-41
2022/02/07 00:46:14;;;;;;;1.00;0.60;;;;;;;3.45;88.27;96586.92;433277;1267;108845;-41
2022/02/07 00:56:21;;;;;;;1.90;1.00;;;;;;;3.51;88.12;96596.64;433645;1267;107809;-42
2022/02/07 01:06:28;;;;;;;3.70;0.80;;;;;;;3.57;88.06;96592.83;433460;1267;97935;-41
2022/02/07 01:58:09;;;;;;;1.20;1.00;;;;;;;2.88;88.19;96513.37;433329;1266;97930;-42
2022/02/07 02:08:25;;;;;;;2.50;1.60;;;;;;;2.88;88.35;96525.27;433390;1267;111303;-40
2022/02/07 03:00:13;;;;;;;6.60;5.60;;;;;;;3.07;88.48;96509.59;433258;1268;97670;-42
2022/02/07 03:20:30;;;;;;;9.50;5.20;;;;;;;3.04;88.56;96510.23;432926;1269;97858;-42
2022/02/07 03:30:39;;;;;;;7.10;5.30;;;;;;;2.97;88.42;96499.34;433216;1268;97939;-41
2022/02/07 03:40:46;;;;;;;8.00;4.40;;;;;;;2.97;88.54;96504.70;432393;1270;111185;-42
2022/02/07 03:50:53;;;;;;;3.70;1.70;;;;;;;3.04;88.66;96520.66;432239;1270;108979;-42
2022/02/07 04:01:00;;;;;;;4.50;2.40;;;;;;;3.07;88.94;96516.17;433129;1268;96632;-42
2022/02/07 04:11:16;;;;;;;3.00;1.90;;;;;;;3.08;88.89;96502.83;432948;1268;108921;-43
2022/02/07 04:21:23;;;;;;;4.20;2.70;;;;;;;3.08;88.93;96495.95;433686;1267;98169;-42
2022/02/07 04:31:30;;;;;;;17.20;8.60;;;;;;;3.03;89.00;96508.27;433554;1267;110782;-42
2022/02/07 05:02:20;;;;;;;5.40;3.60;;;;;;;2.95;89.00;96545.45;433533;1267;97944;-41
2022/02/07 05:32:58;;;;;;;8.80;2.50;;;;;;;2.17;89.94;96674.40;433746;1267;109782;-41
2022/02/07 05:43:07;;;;;;;5.70;1.00;;;;;;;2.00;90.02;96694.06;433659;1267;108168;-41
2022/02/07 05:53:14;;;;;;;6.60;1.30;;;;;;;1.89;90.38;96722.13;433586;1267;97529;-40
2022/02/07 06:03:22;;;;;;;4.80;1.70;;;;;;;1.77;90.45;96758.73;433716;1267;109220;-41
2022/02/07 06:13:28;;;;;;;4.10;2.00;;;;;;;1.74;90.60;96786.22;433357;1268;97918;-42
2022/02/07 06:23:35;;;;;;;8.30;3.50;;;;;;;1.72;90.62;96815.27;433347;1268;111327;-41
2022/02/07 06:33:42;;;;;;;5.80;2.80;;;;;;;1.70;90.74;96842.32;432819;1270;109255;-41
2022/02/07 06:43:50;;;;;;;5.40;3.20;;;;;;;1.65;90.65;96865.60;433116;1270;97925;-41
2022/02/07 06:53:57;;;;;;;1.80;1.20;;;;;;;1.57;90.74;96883.70;433211;1268;108163;-41
2022/02/07 07:04:04;;;;;;;4.60;1.60;;;;;;;1.52;90.89;96901.67;432854;1270;97919;-40
2022/02/07 07:24:20;;;;;;;2.80;1.60;;;;;;;1.64;90.31;96963.33;433128;1270;108845;-41
2022/02/07 07:34:27;;;;;;;2.90;1.70;;;;;;;1.66;89.93;96993.70;432987;1268;97939;-42
2022/02/07 07:44:36;;;;;;;2.80;1.20;;;;;;;1.77;89.35;97011.56;433233;1268;110958;-40
2022/02/07 08:04:53;;;;;;;8.10;2.80;;;;;;;1.87;88.94;97059.00;433404;1268;97936;-40
2022/02/07 08:15:00;;;;;;;6.20;2.90;;;;;;;1.80;88.73;97083.90;433401;1268;111160;-40
2022/02/07 08:25:09;;;;;;;5.40;3.00;;;;;;;1.81;88.68;97096.23;432796;1271;108996;-39
2022/02/07 08:35:17;;;;;;;5.50;2.20;;;;;;;1.88;88.44;97119.81;432807;1271;97918;-40
2022/02/07 08:45:25;;;;;;;8.50;3.60;;;;;;;1.73;88.14;97139.89;432685;1270;112343;-41
2022/02/07 08:55:36;;;;;;;10.70;5.40;;;;;;;1.69;88.34;97157.54;432978;1268;108847;-40
2022/02/07 09:05:50;;;;;;;9.40;4.90;;;;;;;1.62;88.64;97171.99;432824;1268;98617;-41
2022/02/07 09:26:10;;;;;;;4.60;3.10;;;;;;;1.27;89.41;97210.73;432870;1268;108631;-40
2022/02/07 09:36:18;;;;;;;2.90;1.70;;;;;;;1.24;89.54;97220.36;432959;1268;108822;-41
2022/02/07 09:56:40;;;;;;;8.50;3.80;;;;;;;1.28;90.18;97259.25;433076;1268;108828;-41
2022/02/07 10:06:56;;;;;;;4.00;2.10;;;;;;;1.45;90.44;97279.55;433100;1268;98012;-41
2022/02/07 10:17:24;;;;;;;6.50;2.90;;;;;;;1.73;90.08;97308.73;433694;1267;110750;-40
2022/02/07 10:48:27;;;;;;;11.70;5.90;;;;;;;1.78;87.82;97377.96;433594;1267;109145;-41
2022/02/07 10:58:37;;;;;;;7.00;2.10;;;;;;;1.97;87.48;97391.63;433694;1267;98012;-41
2022/02/07 11:29:36;;;;;;;7.30;1.80;;;;;;;2.04;86.59;97456.63;433363;1268;98672;-40
2022/02/07 11:39:44;;;;;;;6.70;2.60;;;;;;;2.15;85.16;97470.30;433826;1267;96676;-41
2022/02/07 11:50:10;;;;;;;7.50;3.60;;;;;;;2.12;83.89;97492.92;433708;1267;108931;-41
2022/02/07 12:00:15;;;;;;;9.50;2.60;;;;;;;2.05;84.12;97514.20;433889;1267;98003;-40
2022/02/07 12:30:48;;;;;;;6.50;3.40;;;;;;;2.60;80.42;97563.10;433604;1267;108830;-40
2022/02/07 12:40:56;;;;;;;10.20;4.20;;;;;;;2.56;79.20;97593.15;433942;1267;97906;-39
2022/02/07 12:51:04;;;;;;;6.70;2.90;;;;;;;2.55;79.74;97609.02;433815;1267;111354;-41
2022/02/07 13:01:22;;;;;;;12.50;2.70;;;;;;;2.64;77.64;97623.59;433605;1267;109177;-40
2022/02/07 13:21:41;;;;;;;6.90;2.20;;;;;;;2.75;76.70;97665.57;433613;1267;111071;-40
2022/02/07 13:31:53;;;;;;;7.20;2.80;;;;;;;2.71;75.87;97681.09;433718;1266;107779;-40
2022/02/07 13:42:10;;;;;;;8.30;1.80;;;;;;;2.75;75.75;97693.27;431344;1267;3259631;-40
2022/02/07 13:52:18;;;;;;;7.00;2.10;;;;;;;2.89;75.05;97716.94;433721;1267;111149;-42
2022/02/07 14:02:34;;;;;;;11.10;4.40;;;;;;;2.87;74.93;97755.34;433931;1267;109432;-40
2022/02/07 14:12:41;;;;;;;6.30;1.70;;;;;;;2.86;75.01;97774.27;433669;1267;97945;-40
2022/02/07 14:22:48;;;;;;;13.90;4.70;;;;;;;2.73;75.48;97796.37;433724;1267;111066;-43
2022/02/07 14:32:54;;;;;;;6.20;2.60;;;;;;;2.48;75.49;97824.36;433590;1267;107367;-40
2022/02/07 14:43:04;;;;;;;7.10;2.50;;;;;;;2.41;75.85;97837.33;433686;1267;108854;-40
2022/02/07 14:53:13;;;;;;;12.00;4.20;;;;;;;2.33;76.38;97854.14;433560;1267;97894;-39
2022/02/07 15:03:21;;;;;;;4.90;2.70;;;;;;;2.26;77.08;97875.59;433575;1267;111328;-40
2022/02/07 15:23:37;;;;;;;17.90;8.90;;;;;;;2.23;78.10;97906.73;433739;1267;97910;-39
2022/02/07 15:33:45;;;;;;;25.10;10.30;;;;;;;2.22;78.46;97917.55;433612;1267;97993;-41
2022/02/07 15:43:51;;;;;;;5.60;2.90;;;;;;;2.25;78.66;97933.45;433611;1267;111390;-40
2022/02/07 15:53:59;;;;;;;11.90;5.40;;;;;;;2.21;78.96;97968.32;433740;1267;108706;-40
2022/02/07 16:04:07;;;;;;;17.70;5.30;;;;;;;2.08;79.78;97987.13;433675;1267;98847;-39
2022/02/07 16:14:22;;;;;;;19.20;7.60;;;;;;;2.10;80.08;98001.14;433568;1265;108190;-40
2022/02/07 16:24:30;;;;;;;22.20;8.80;;;;;;;2.10;80.32;98019.08;433748;1267;97983;-40
2022/02/07 16:34:37;;;;;;;17.00;7.30;;;;;;;2.09;80.26;98035.45;433745;1267;112381;-40
2022/02/07 16:54:52;;;;;;;13.30;3.70;;;;;;;2.04;80.68;98063.05;433603;1267;99365;-40
2022/02/07 17:04:59;;;;;;;11.60;3.80;;;;;;;1.98;80.86;98070.15;433492;1267;112493;-41
2022/02/07 17:15:07;;;;;;;13.20;4.60;;;;;;;1.85;80.98;98095.90;433316;1268;109553;-40
2022/02/07 17:25:15;;;;;;;17.70;6.30;;;;;;;1.79;81.47;98124.44;433540;1268;99273;-41
2022/02/07 17:35:20;;;;;;;11.70;3.80;;;;;;;1.76;81.72;98146.55;433591;1268;112404;-41
2022/02/07 17:55:35;;;;;;;20.60;5.60;;;;;;;1.82;82.09;98195.52;432972;1270;99249;-41
2022/02/07 18:05:45;;;;;;;13.20;4.30;;;;;;;1.72;82.07;98219.50;432900;1270;112505;-39
2022/02/07 18:15:57;;;;;;;16.60;4.70;;;;;;;1.70;82.29;98239.92;433104;1270;108805;-39
2022/02/07 18:26:05;;;;;;;21.80;5.60;;;;;;;1.68;82.54;98253.56;433320;1268;99267;-39
2022/02/07 18:36:13;;;;;;;13.20;3.70;;;;;;;1.64;82.90;98263.02;432961;1270;113299;-40
2022/02/07 18:46:19;;;;;;;15.90;3.90;;;;;;;1.64;82.98;98278.28;433273;1268;108917;-40
2022/02/07 19:06:37;;;;;;;15.40;6.00;;;;;;;1.37;82.91;98300.73;433524;1268;112357;-40
2022/02/07 19:16:47;;;;;;;20.20;4.80;;;;;;;1.28;82.79;98324.45;433281;1268;108945;-41
2022/02/07 19:37:16;;;;;;;16.80;4.30;;;;;;;1.03;82.66;98335.64;433170;1268;107929;-40
2022/02/07 19:47:23;;;;;;;20.30;5.60;;;;;;;1.02;82.24;98353.01;432956;1269;99221;-40
2022/02/07 19:57:30;;;;;;;19.60;6.60;;;;;;;0.92;82.13;98369.41;433333;1268;112698;-40
2022/02/07 20:07:38;;;;;;;16.10;4.70;;;;;;;0.79;82.36;98381.73;432840;1270;108051;-40
2022/02/07 20:17:46;;;;;;;18.00;5.60;;;;;;;0.76;82.53;98397.23;432818;1269;98358;-40
2022/02/07 20:38:00;;;;;;;13.60;5.20;;;;;;;0.68;82.86;98437.84;433039;1269;108724;-40
2022/02/07 20:48:11;;;;;;;12.50;4.30;;;;;;;0.73;82.94;98437.35;433312;1268;98853;-42
2022/02/07 20:58:17;;;;;;;23.90;6.20;;;;;;;0.73;82.95;98454.81;433358;1268;112282;-41
2022/02/07 21:08:44;;;;;;;21.10;5.30;;;;;;;0.71;83.06;98473.10;432796;1270;107739;-42
2022/02/07 21:18:50;;;;;;;16.20;5.50;;;;;;;0.71;82.97;98474.80;433415;1268;99573;-40
2022/02/07 21:28:57;;;;;;;13.90;5.40;;;;;;;0.79;82.95;98491.23;432458;1270;107999;-40
2022/02/07 21:39:04;;;;;;;29.40;6.40;;;;;;;0.90;82.95;98499.21;432802;1268;99279;-41
2022/02/07 21:49:13;;;;;;;25.30;5.20;;;;;;;1.06;82.77;98513.42;432682;1270;113098;-40
2022/02/07 21:59:21;;;;;;;25.40;6.60;;;;;;;1.20;82.41;98533.16;433075;1268;109514;-41
2022/02/07 22:09:30;;;;;;;23.00;6.60;;;;;;;1.23;82.46;98549.83;433236;1268;99356;-41
2022/02/07 22:19:38;;;;;;;20.30;5.60;;;;;;;1.17;82.46;98563.16;433517;1268;112412;-41
2022/02/07 22:29:45;;;;;;;22.90;5.00;;;;;;;1.24;82.30;98576.32;433278;1268;108917;-41
2022/02/07 22:39:52;;;;;;;18.80;4.70;;;;;;;1.31;82.08;98590.95;433135;1268;99302;-40
2022/02/07 22:49:59;;;;;;;24.80;5.80;;;;;;;1.31;82.09;98597.80;433068;1268;112511;-41
2022/02/07 23:00:12;;;;;;;14.80;3.40;;;;;;;1.33;81.84;98604.97;432839;1268;107910;-40
2022/02/07 23:41:38;;;;;;;13.00;3.50;;;;;;;1.41;81.89;98667.32;432929;1268;99374;-41
2022/02/07 23:51:59;;;;;;;21.20;5.10;;;;;;;1.39;81.81;98681.21;432986;1268;112752;-40
